Terminal Aerodrome Forecast
Issued by NWS

Home | Current Version | Previous Version | Text Only | Print | Product List | Glossary On
Versions: 1 2 3 4 5 6 7 8 9 10 11 12 13 14 15 16 17
000
FTAK31 PAJN 271741
TAFAJN
TAF
PAJN 271741Z 2718/2818 08007KT P6SM VCSH BKN035 OVC050
      TEMPO 2718/2722 6SM -SHRA BR FEW005 BKN025 OVC035
     FM272200 12012KT P6SM VCSH BKN035 OVC050
     FM280900 08006KT P6SM VCSH FEW005 BKN035 OVC050=

USA.gov is the U.S. government's official web portal to all federal, state and local government web resources and services.